createdAt,value
2018-06-02T00:02:03.355Z,95795.33
2018-06-02T00:04:32.425Z,95803.44
2018-06-02T00:07:01.482Z,95800.53
2018-06-02T00:09:30.527Z,95805.31
2018-06-02T00:11:59.569Z,95803.72
2018-06-02T00:14:28.623Z,95800.98
2018-06-02T00:16:57.657Z,95805.19
2018-06-02T00:19:26.705Z,95799.88
2018-06-02T00:24:31.963Z,95794.47
2018-06-02T00:29:36.835Z,95785.44
2018-06-02T00:32:05.877Z,95782.02
2018-06-02T00:34:34.966Z,95782.27
2018-06-02T00:37:04.018Z,95777.55
2018-06-02T00:39:33.076Z,95782.11
2018-06-02T00:42:02.131Z,95779.30
2018-06-02T00:44:31.182Z,95781.78
2018-06-02T00:47:00.222Z,95782.30
2018-06-02T00:49:38.825Z,95782.24
2018-06-02T00:52:20.625Z,95784.34
2018-06-02T00:57:30.053Z,95789.50
2018-06-02T01:00:13.274Z,95789.48
2018-06-02T01:02:55.364Z,95793.40
2018-06-02T01:08:17.151Z,95786.11
2018-06-02T01:11:02.657Z,95790.48
2018-06-02T01:13:46.593Z,95790.42
2018-06-02T01:16:30.072Z,95788.81
2018-06-02T01:19:13.965Z,95788.25
2018-06-02T01:21:56.232Z,95786.17
2018-06-02T01:24:39.858Z,95786.31
2018-06-02T01:30:03.154Z,95781.42
2018-06-02T01:32:45.189Z,95776.34
2018-06-02T01:35:27.243Z,95777.80
2018-06-02T01:37:56.901Z,95779.21
2018-06-02T01:43:01.674Z,95779.78
2018-06-02T01:45:30.714Z,95776.80
2018-06-02T01:47:59.758Z,95775.31
2018-06-02T01:50:28.795Z,95775.42
2018-06-02T01:52:57.844Z,95778.59
2018-06-02T01:58:02.609Z,95784.72
2018-06-02T02:00:31.685Z,95783.15
2018-06-02T02:03:00.736Z,95786.48
2018-06-02T02:08:05.607Z,95787.16
2018-06-02T02:16:45.111Z,95782.84
2018-06-02T02:19:14.162Z,95779.44
2018-06-02T02:21:43.216Z,95777.86
2018-06-02T02:24:12.278Z,95782.48
2018-06-02T02:26:41.343Z,95786.52
2018-06-02T02:29:10.394Z,95787.72
2018-06-02T02:31:39.443Z,95786.91
2018-06-02T02:34:08.485Z,95788.70
2018-06-02T02:36:37.577Z,95788.22
2018-06-02T02:39:06.619Z,95780.30
2018-06-02T02:41:35.691Z,95778.91
2018-06-02T02:44:04.752Z,95782.67
2018-06-02T02:46:33.812Z,95789.31
2018-06-02T02:49:02.874Z,95792.66
2018-06-02T02:51:31.947Z,95793.81
2018-06-02T02:54:01.002Z,95799.59
2018-06-02T02:56:30.037Z,95803.56
2018-06-02T02:58:59.089Z,95801.10
2018-06-02T03:01:28.136Z,95804.86
2018-06-02T03:03:57.233Z,95798.45
2018-06-02T03:06:26.285Z,95797.01
2018-06-02T03:08:55.334Z,95803.98
2018-06-02T03:11:24.382Z,95808.42
2018-06-02T03:13:53.534Z,95806.11
2018-06-02T03:16:22.593Z,95804.90
2018-06-02T03:18:51.657Z,95800.84
2018-06-02T03:21:20.726Z,95797.31
2018-06-02T03:23:49.787Z,95795.96
2018-06-02T03:26:18.813Z,95799.52
2018-06-02T03:28:47.872Z,95800.52
2018-06-02T03:31:16.929Z,95797.23
2018-06-02T03:33:45.984Z,95801.45
2018-06-02T03:36:15.045Z,95801.65
2018-06-02T03:38:44.090Z,95807.47
2018-06-02T03:43:48.868Z,95818.77
2018-06-02T03:46:17.918Z,95822.03
2018-06-02T03:48:47.383Z,95823.69
2018-06-02T03:51:16.505Z,95822.45
2018-06-02T03:53:45.801Z,95831.44
2018-06-02T03:56:14.857Z,95831.19
2018-06-02T03:58:43.915Z,95837.07
2018-06-02T04:03:48.696Z,95837.69
2018-06-02T04:06:19.342Z,95838.13
2018-06-02T04:08:48.404Z,95840.56
2018-06-02T04:11:17.686Z,95839.83
2018-06-02T04:13:46.970Z,95841.39
2018-06-02T04:16:16.058Z,95844.11
2018-06-02T04:18:46.851Z,95845.79
2018-06-02T04:21:15.881Z,95844.98
2018-06-02T04:23:46.165Z,95842.45
2018-06-02T04:28:51.974Z,95844.11
2018-06-02T04:31:21.043Z,95844.31
2018-06-02T04:36:25.843Z,95848.34
2018-06-02T04:38:55.025Z,95845.22
2018-06-02T04:41:24.074Z,95845.94
2018-06-02T04:43:53.123Z,95844.45
2018-06-02T04:46:23.108Z,95839.95
2018-06-02T04:48:52.128Z,95842.77
2018-06-02T04:51:21.179Z,95845.33
2018-06-02T04:53:50.221Z,95842.00
2018-06-02T04:56:19.273Z,95844.44
2018-06-02T04:58:49.102Z,95842.22
2018-06-02T05:01:18.125Z,95844.11
2018-06-02T05:03:48.950Z,95843.83
2018-06-02T05:06:18.044Z,95841.91
2018-06-02T05:08:47.549Z,95844.11
2018-06-02T05:11:16.582Z,95842.61
2018-06-02T05:13:46.524Z,95843.02
2018-06-02T05:16:15.963Z,95843.09
2018-06-02T05:18:45.898Z,95840.58
2018-06-02T05:21:16.181Z,95842.30
2018-06-02T05:23:46.433Z,95847.66
2018-06-02T05:26:15.449Z,95851.12
2018-06-02T05:28:46.061Z,95850.55
2018-06-02T05:31:15.125Z,95844.45
2018-06-02T05:33:46.426Z,95844.31
2018-06-02T05:36:15.487Z,95844.09
2018-06-02T05:38:47.308Z,95846.75
2018-06-02T05:43:52.177Z,95847.90
2018-06-02T05:46:21.271Z,95853.27
2018-06-02T05:48:50.327Z,95855.37
2018-06-02T05:51:19.623Z,95856.63
2018-06-02T05:53:48.666Z,95853.48
2018-06-02T05:56:17.739Z,95855.06
2018-06-02T05:58:46.831Z,95856.54
2018-06-02T06:01:15.877Z,95854.41
2018-06-02T06:03:46.106Z,95854.39
2018-06-02T06:06:15.197Z,95848.16
2018-06-02T06:08:46.000Z,95845.52
2018-06-02T06:11:16.132Z,95845.43
2018-06-02T06:13:47.258Z,95848.47
2018-06-02T06:16:16.401Z,95850.66
2018-06-02T06:18:46.729Z,95850.25
2018-06-02T06:21:15.801Z,95849.88
2018-06-02T06:26:20.617Z,95850.48
2018-06-02T06:28:50.464Z,95846.37
2018-06-02T06:31:19.486Z,95846.20
2018-06-02T06:33:48.808Z,95841.84
2018-06-02T06:41:29.510Z,95837.69
2018-06-02T06:46:34.610Z,95838.01
2018-06-02T06:49:03.637Z,95836.16
2018-06-02T06:51:32.778Z,95833.84
2018-06-02T06:54:01.854Z,95833.09
2018-06-02T06:56:31.074Z,95836.36
2018-06-02T06:59:00.136Z,95838.02
2018-06-02T07:01:29.900Z,95835.40
2018-06-02T07:04:03.249Z,95834.83
2018-06-02T07:06:33.163Z,95830.31
2018-06-02T07:09:02.236Z,95833.91
2018-06-02T07:11:33.412Z,95838.50
2018-06-02T07:14:02.718Z,95837.41
2018-06-02T07:16:32.585Z,95838.16
2018-06-02T07:19:01.636Z,95840.95
2018-06-02T07:21:31.188Z,95836.42
2018-06-02T07:26:36.035Z,95830.38
2018-06-02T07:29:07.538Z,95829.52
2018-06-02T07:31:36.573Z,95831.17
2018-06-02T07:34:05.902Z,95823.05
2018-06-02T07:36:34.974Z,95831.23
2018-06-02T07:39:05.158Z,95831.77
2018-06-02T07:41:34.201Z,95832.45
2018-06-02T07:44:03.258Z,95832.09
2018-06-02T07:46:32.801Z,95831.27
2018-06-02T07:49:01.834Z,95827.23
2018-06-02T07:51:31.522Z,95824.73
2018-06-02T07:54:00.561Z,95825.08
2018-06-02T07:56:29.682Z,95821.41
2018-06-02T07:58:58.727Z,95823.58
2018-06-02T08:01:27.771Z,95825.31
2018-06-02T08:06:32.702Z,95821.09
2018-06-02T08:09:02.402Z,95825.53
2018-06-02T08:11:31.426Z,95827.05
2018-06-02T08:14:01.493Z,95826.84
2018-06-02T08:16:30.534Z,95830.16
2018-06-02T08:19:00.090Z,95833.62
2018-06-02T08:21:29.125Z,95834.33
2018-06-02T08:23:58.829Z,95833.38
2018-06-02T08:26:27.878Z,95834.59
2018-06-02T08:31:32.893Z,95836.06
2018-06-02T08:34:01.942Z,95835.41
2018-06-02T08:36:31.376Z,95836.23
2018-06-02T08:41:36.681Z,95828.55
2018-06-02T08:44:05.745Z,95830.64
2018-06-02T08:46:35.018Z,95833.50
2018-06-02T08:49:04.094Z,95832.02
2018-06-02T08:51:33.133Z,95831.71
2018-06-02T08:54:02.174Z,95836.18
2018-06-02T08:56:32.743Z,95835.91
2018-06-02T08:59:01.786Z,95835.70
2018-06-02T09:01:31.614Z,95827.72
2018-06-02T09:04:00.662Z,95831.95
2018-06-02T09:06:29.739Z,95833.00
2018-06-02T09:08:59.558Z,95829.62
2018-06-02T09:11:28.616Z,95837.59
2018-06-02T09:13:57.683Z,95836.48
2018-06-02T09:16:26.732Z,95838.67
2018-06-02T09:18:55.838Z,95840.30
2018-06-02T09:21:25.120Z,95838.56
2018-06-02T09:23:54.598Z,95841.66
2018-06-02T09:26:23.645Z,95833.39
2018-06-02T09:28:53.435Z,95831.61
2018-06-02T09:31:22.466Z,95831.32
2018-06-02T09:36:27.974Z,95822.20
2018-06-02T09:38:57.022Z,95823.52
2018-06-02T09:41:26.809Z,95821.41
2018-06-02T09:46:31.568Z,95821.53
2018-06-02T09:49:00.607Z,95820.56
2018-06-02T09:51:29.650Z,95823.01
2018-06-02T09:53:58.905Z,95818.59
2018-06-02T09:56:27.976Z,95815.99
2018-06-02T10:01:33.222Z,95815.06
2018-06-02T10:04:02.270Z,95808.04
2018-06-02T10:06:31.341Z,95815.23
2018-06-02T10:09:00.482Z,95815.33
2018-06-02T10:11:29.956Z,95813.33
2018-06-02T10:13:58.997Z,95814.06
2018-06-02T10:16:28.743Z,95810.59
2018-06-02T10:21:33.498Z,95809.22
2018-06-02T10:24:02.729Z,95808.47
2018-06-02T10:26:31.786Z,95803.19
2018-06-02T10:29:01.049Z,95806.59
2018-06-02T10:31:30.081Z,95801.78
2018-06-02T10:34:00.074Z,95797.22
2018-06-02T10:36:29.134Z,95797.81
2018-06-02T10:38:58.595Z,95798.03
2018-06-02T10:41:27.663Z,95799.43
2018-06-02T10:46:32.489Z,95799.70
2018-06-02T10:51:38.202Z,95797.53
2018-06-02T10:54:07.247Z,95795.93
2018-06-02T10:56:37.135Z,95794.16
2018-06-02T10:59:06.323Z,95785.72
2018-06-02T11:01:35.751Z,95782.98
2018-06-02T11:04:04.761Z,95773.97
2018-06-02T11:06:34.122Z,95772.49
2018-06-02T11:09:06.292Z,95775.23
2018-06-02T11:11:35.493Z,95775.32
2018-06-02T11:14:04.543Z,95778.87
2018-06-02T11:16:33.590Z,95778.33
2018-06-02T11:19:02.644Z,95776.63
2018-06-02T11:21:31.682Z,95768.95
2018-06-02T11:24:00.732Z,95762.55
2018-06-02T11:26:29.788Z,95758.32
2018-06-02T11:28:59.509Z,95755.18
2018-06-02T11:31:28.537Z,95749.73
2018-06-02T11:33:58.629Z,95748.22
2018-06-02T11:36:27.665Z,95749.51
2018-06-02T11:38:56.999Z,95746.77
2018-06-02T11:41:26.522Z,95744.92
2018-06-02T11:43:55.563Z,95745.97
2018-06-02T11:46:24.612Z,95743.83
2018-06-02T11:48:53.674Z,95739.95
2018-06-02T11:51:22.714Z,95736.61
2018-06-02T11:53:51.796Z,95731.21
2018-06-02T11:56:20.845Z,95722.53
2018-06-02T11:58:56.762Z,95725.63
2018-06-02T12:01:34.637Z,95712.86
2018-06-02T12:06:52.184Z,95702.74
2018-06-02T12:09:29.784Z,95707.86
2018-06-02T12:12:08.620Z,95716.28
2018-06-02T12:17:24.341Z,95706.97
2018-06-02T12:19:53.884Z,95713.10
2018-06-02T12:22:24.128Z,95711.30
2018-06-02T12:24:53.154Z,95705.04
2018-06-02T12:27:22.757Z,95705.44
2018-06-02T12:29:51.848Z,95698.11
2018-06-02T12:32:21.415Z,95701.78
2018-06-02T12:34:50.498Z,95692.52
2018-06-02T12:37:20.212Z,95694.08
2018-06-02T12:39:49.271Z,95686.34
2018-06-02T12:42:18.861Z,95683.55
2018-06-02T12:44:47.884Z,95679.19
2018-06-02T12:47:17.233Z,95675.03
2018-06-02T12:49:46.311Z,95680.77
2018-06-02T12:52:15.494Z,95676.64
2018-06-02T12:54:44.572Z,95672.48
2018-06-02T12:57:13.640Z,95670.22
2018-06-02T12:59:42.672Z,95669.27
2018-06-02T13:02:11.734Z,95663.45
2018-06-02T13:04:40.785Z,95663.86
2018-06-02T13:07:09.833Z,95661.64
2018-06-02T13:09:39.241Z,95651.55
2018-06-02T13:14:44.214Z,95648.87
2018-06-02T13:17:14.101Z,95643.80
2018-06-02T13:19:43.156Z,95642.78
2018-06-02T13:22:12.769Z,95645.61
2018-06-02T13:24:41.816Z,95645.09
2018-06-02T13:27:11.462Z,95647.91
2018-06-02T13:29:40.537Z,95645.74
2018-06-02T13:32:09.569Z,95640.34
2018-06-02T13:34:38.629Z,95631.47
2018-06-02T13:37:07.689Z,95639.42
2018-06-02T13:39:36.737Z,95638.19
2018-06-02T13:42:05.779Z,95642.43
2018-06-02T13:44:35.097Z,95643.30
2018-06-02T13:47:04.217Z,95638.44
2018-06-02T13:49:33.731Z,95638.44
2018-06-02T13:52:02.802Z,95627.42
2018-06-02T13:54:35.730Z,95626.50
2018-06-02T13:57:08.600Z,95624.63
2018-06-02T13:59:41.722Z,95634.80
2018-06-02T14:02:14.566Z,95632.17
2018-06-02T14:04:47.342Z,95627.52
2018-06-02T14:07:20.336Z,95629.97
2018-06-02T14:09:53.612Z,95627.38
2018-06-02T14:12:25.907Z,95626.63
2018-06-02T14:17:34.246Z,95616.52
2018-06-02T14:20:07.529Z,95615.73
2018-06-02T14:22:40.624Z,95621.09
2018-06-02T14:27:53.063Z,95607.88
2018-06-02T14:30:26.343Z,95607.20
2018-06-02T14:32:59.546Z,95612.06
2018-06-02T14:35:32.054Z,95619.09
2018-06-02T14:38:05.391Z,95615.55
2018-06-02T14:40:38.450Z,95610.09
2018-06-02T14:43:10.643Z,95602.15
2018-06-02T14:45:43.616Z,95599.94
2018-06-02T14:53:30.524Z,95586.55
2018-06-02T14:56:02.923Z,95588.64
2018-06-02T14:58:35.947Z,95584.49
2018-06-02T15:01:09.100Z,95584.88
2018-06-02T15:03:41.602Z,95585.00
2018-06-02T15:06:14.599Z,95592.66
2018-06-02T15:08:47.860Z,95588.13
2018-06-02T15:11:20.767Z,95584.04
2018-06-02T15:13:56.173Z,95589.38
2018-06-02T15:16:27.976Z,95594.26
2018-06-02T15:19:00.860Z,95586.45
2018-06-02T15:21:36.150Z,95586.63
2018-06-02T15:24:09.528Z,95579.57
2018-06-02T15:29:18.199Z,95569.12
2018-06-02T15:31:50.088Z,95577.33
2018-06-02T15:34:22.244Z,95576.57
2018-06-02T15:39:31.058Z,95569.62
2018-06-02T15:42:03.963Z,95566.26
2018-06-02T15:44:36.073Z,95564.43
2018-06-02T15:47:08.307Z,95564.69
2018-06-02T15:49:41.913Z,95568.39
2018-06-02T15:52:14.442Z,95565.39
2018-06-02T15:54:47.543Z,95570.30
2018-06-02T15:57:19.795Z,95566.03
2018-06-02T15:59:53.683Z,95569.20
2018-06-02T16:02:27.693Z,95575.84
2018-06-02T16:04:59.893Z,95572.44
2018-06-02T16:07:31.845Z,95573.67
2018-06-02T16:10:04.406Z,95570.55
2018-06-02T16:12:35.857Z,95573.31
2018-06-02T16:15:08.818Z,95571.51
2018-06-02T16:17:41.241Z,95570.05
2018-06-02T16:20:13.223Z,95575.35
2018-06-02T16:22:45.599Z,95577.23
2018-06-02T16:25:18.572Z,95575.05
2018-06-02T16:27:50.668Z,95575.10
2018-06-02T16:30:22.657Z,95575.97
2018-06-02T16:32:54.773Z,95572.31
2018-06-02T16:35:27.115Z,95575.97
2018-06-02T16:38:00.013Z,95577.69
2018-06-02T16:40:31.746Z,95574.46
2018-06-02T16:43:03.890Z,95578.93
2018-06-02T16:45:37.573Z,95573.53
2018-06-02T16:53:25.576Z,95573.04
2018-06-02T16:55:58.645Z,95573.04
2018-06-02T16:58:31.314Z,95572.29
2018-06-02T17:01:05.042Z,95570.36
2018-06-02T17:03:37.736Z,95575.40
2018-06-02T17:06:10.809Z,95575.39
2018-06-02T17:08:43.083Z,95579.76
2018-06-02T17:11:15.587Z,95580.95
2018-06-02T17:13:47.681Z,95586.79
2018-06-02T17:16:20.443Z,95586.61
2018-06-02T17:21:29.825Z,95595.92
2018-06-02T17:24:03.204Z,95598.53
2018-06-02T17:26:35.536Z,95596.36
2018-06-02T17:29:08.264Z,95600.38
2018-06-02T17:31:40.912Z,95598.78
2018-06-02T17:34:14.283Z,95597.89
2018-06-02T17:36:47.514Z,95599.20
2018-06-02T17:39:20.329Z,95600.69
2018-06-02T17:44:29.682Z,95604.92
2018-06-02T17:47:02.034Z,95604.67
2018-06-02T17:49:34.343Z,95605.19
2018-06-02T17:52:06.899Z,95608.95
2018-06-02T17:54:39.726Z,95603.76
2018-06-02T17:57:13.124Z,95604.00
2018-06-02T17:59:46.934Z,95609.97
2018-06-02T18:02:21.506Z,95602.16
2018-06-02T18:07:30.671Z,95604.00
2018-06-02T18:10:03.062Z,95606.81
2018-06-02T18:12:32.165Z,95609.75
2018-06-02T18:15:02.136Z,95605.50
2018-06-02T18:17:31.540Z,95603.57
2018-06-02T18:20:00.640Z,95605.07
2018-06-02T18:22:29.875Z,95605.91
2018-06-02T18:24:59.251Z,95611.43
2018-06-02T18:27:28.329Z,95611.89
2018-06-02T18:29:57.409Z,95613.11
2018-06-02T18:32:26.644Z,95615.38
2018-06-02T18:34:55.690Z,95617.16
2018-06-02T18:37:24.798Z,95613.97
2018-06-02T18:39:54.007Z,95616.63
2018-06-02T18:42:23.071Z,95622.70
2018-06-02T18:47:27.950Z,95625.60
2018-06-02T18:49:57.015Z,95629.34
2018-06-02T18:52:26.217Z,95626.55
2018-06-02T18:57:31.092Z,95636.00
2018-06-02T19:00:00.355Z,95638.70
2018-06-02T19:02:29.463Z,95641.17
2018-06-02T19:04:59.431Z,95644.08
2018-06-02T19:07:28.550Z,95640.47
2018-06-02T19:09:58.528Z,95643.42
2018-06-02T19:12:27.598Z,95646.63
2018-06-02T19:14:56.646Z,95646.92
2018-06-02T19:17:25.708Z,95649.64
2018-06-02T19:19:54.926Z,95652.67
2018-06-02T19:22:24.029Z,95656.67
2018-06-02T19:24:53.120Z,95664.41
2018-06-02T19:27:22.866Z,95669.13
2018-06-02T19:29:51.975Z,95666.14
2018-06-02T19:34:56.789Z,95668.17
2018-06-02T19:37:25.859Z,95670.77
2018-06-02T19:39:54.926Z,95672.92
2018-06-02T19:42:24.177Z,95675.52
2018-06-02T19:44:53.234Z,95675.17
2018-06-02T19:47:22.307Z,95678.03
2018-06-02T19:49:51.375Z,95685.01
2018-06-02T19:52:22.888Z,95690.61
2018-06-02T19:54:52.173Z,95697.52
2018-06-02T19:57:21.933Z,95698.55
2018-06-02T19:59:51.013Z,95700.25
2018-06-02T20:02:23.761Z,95701.09
2018-06-02T20:04:54.616Z,95706.23
2018-06-02T20:07:25.535Z,95712.54
2018-06-02T20:09:56.237Z,95712.66
2018-06-02T20:12:27.079Z,95715.04
2018-06-02T20:17:36.708Z,95718.59
2018-06-02T20:20:08.267Z,95722.95
2018-06-02T20:22:41.268Z,95720.48
2018-06-02T20:25:13.118Z,95718.75
2018-06-02T20:27:45.714Z,95722.84
2018-06-02T20:30:18.267Z,95719.49
2018-06-02T20:32:52.180Z,95721.23
2018-06-02T20:35:23.299Z,95720.12
2018-06-02T20:37:54.757Z,95721.11
2018-06-02T20:43:03.159Z,95712.77
2018-06-02T20:48:13.025Z,95714.34
2018-06-02T20:50:45.325Z,95720.41
2018-06-02T20:55:53.888Z,95719.55
2018-06-02T20:58:26.653Z,95725.49
2018-06-02T21:03:34.784Z,95716.43
2018-06-02T21:06:06.714Z,95717.00
2018-06-02T21:08:37.383Z,95718.78
2018-06-02T21:13:45.767Z,95723.96
2018-06-02T21:16:17.417Z,95723.39
2018-06-02T21:18:49.350Z,95723.00
2018-06-02T21:21:22.336Z,95720.10
2018-06-02T21:23:52.596Z,95722.32
2018-06-02T21:28:58.448Z,95727.16
2018-06-02T21:31:31.286Z,95731.17
2018-06-02T21:34:02.362Z,95733.89
2018-06-02T21:36:35.028Z,95739.90
2018-06-02T21:39:07.203Z,95740.37
2018-06-02T21:41:42.288Z,95746.30
2018-06-02T21:44:13.527Z,95748.98
2018-06-02T21:46:46.103Z,95751.49
2018-06-02T21:49:18.582Z,95754.71
2018-06-02T21:51:51.100Z,95751.07
2018-06-02T21:54:22.353Z,95750.96
2018-06-02T21:56:53.923Z,95752.55
2018-06-02T21:59:26.677Z,95749.89
2018-06-02T22:01:57.955Z,95750.94
2018-06-02T22:04:29.641Z,95747.85
2018-06-02T22:07:03.185Z,95747.52
2018-06-02T22:12:12.445Z,95753.84
2018-06-02T22:14:45.473Z,95750.52
2018-06-02T22:17:17.506Z,95746.78
2018-06-02T22:19:50.782Z,95750.28
2018-06-02T22:22:22.052Z,95756.36
2018-06-02T22:24:52.657Z,95756.53
2018-06-02T22:27:25.096Z,95754.30
2018-06-02T22:29:56.175Z,95752.30
2018-06-02T22:32:27.944Z,95750.62
2018-06-02T22:34:59.039Z,95751.48
2018-06-02T22:40:06.102Z,95750.66
2018-06-02T22:42:38.412Z,95750.95
2018-06-02T22:45:11.022Z,95740.57
2018-06-02T22:47:42.632Z,95743.86
2018-06-02T22:50:14.847Z,95740.05
2018-06-02T22:52:47.189Z,95741.18
2018-06-02T22:57:55.346Z,95738.92
2018-06-02T23:00:29.495Z,95739.89
2018-06-02T23:05:39.002Z,95743.30
2018-06-02T23:08:10.190Z,95741.92
2018-06-02T23:10:41.108Z,95745.50
2018-06-02T23:13:13.248Z,95741.58
2018-06-02T23:15:45.661Z,95747.05
2018-06-02T23:18:17.034Z,95746.48
2018-06-02T23:20:48.892Z,95750.00
2018-06-02T23:23:20.936Z,95749.19
2018-06-02T23:25:53.622Z,95746.09
2018-06-02T23:28:26.608Z,95746.27
2018-06-02T23:30:56.827Z,95741.86
2018-06-02T23:33:29.833Z,95739.26
2018-06-02T23:36:02.286Z,95742.52
2018-06-02T23:38:35.554Z,95736.59
2018-06-02T23:41:07.701Z,95737.36
2018-06-02T23:43:42.025Z,95736.01
2018-06-02T23:46:14.510Z,95737.84
2018-06-02T23:48:46.464Z,95736.11
2018-06-02T23:51:19.109Z,95736.33
2018-06-02T23:53:52.198Z,95733.88
2018-06-02T23:56:24.852Z,95732.48
2018-06-02T23:58:55.979Z,95735.32
